Time;durP1;ratioP1;P1;durP2;ratioP2;P2;SDS_P1;SDS_P2;PMS_P1;PMS_P2;Temp;Humidity;BMP_temperature;BMP_pressure;BME280_temperature;BME280_humidity;BME280_pressure;Samples;Min_cycle;Max_cycle;Signal;HPM_P1;HPM_P2
2021/04/28 00:00:32;;;;;;;167.10;95.67;;;;;;;18.77;53.00;98683.31;2063621;28;20479;-66
2021/04/28 00:01:33;;;;;;;160.70;92.97;;;;;;;18.78;52.80;98676.81;2062754;28;20030;-66
2021/04/28 00:02:34;;;;;;;167.20;93.67;;;;;;;18.76;52.82;98676.13;2062847;28;20110;-67
2021/04/28 00:03:34;;;;;;;148.13;88.90;;;;;;;18.77;52.83;98683.31;2063089;28;20034;-66
2021/04/28 00:04:35;;;;;;;156.03;92.17;;;;;;;18.77;52.82;98677.00;2060682;28;20046;-66
2021/04/28 00:05:37;;;;;;;153.90;88.37;;;;;;;18.77;52.77;98683.31;2062927;28;20490;-67
2021/04/28 00:06:37;;;;;;;156.07;89.05;;;;;;;18.77;52.82;98682.47;2058127;28;20026;-66
2021/04/28 00:07:38;;;;;;;154.43;87.47;;;;;;;18.77;52.92;98677.00;2062363;28;20125;-67
2021/04/28 00:08:38;;;;;;;156.30;92.50;;;;;;;18.76;52.77;98684.31;2058872;28;20069;-66
2021/04/28 00:09:42;;;;;;;155.83;87.00;;;;;;;18.76;52.80;98675.28;2063739;28;20101;-66
2021/04/28 00:10:42;;;;;;;156.30;93.03;;;;;;;18.76;52.91;98676.13;2063307;28;20421;-66
2021/04/28 00:11:43;;;;;;;147.93;87.40;;;;;;;18.76;52.83;98670.69;2062433;28;20034;-66
2021/04/28 00:12:44;;;;;;;158.77;94.37;;;;;;;18.76;52.78;98669.84;2062605;28;20068;-67
2021/04/28 00:13:45;;;;;;;148.18;88.20;;;;;;;18.75;52.74;98668.97;2062581;28;20030;-66
2021/04/28 00:14:45;;;;;;;149.10;87.50;;;;;;;18.76;52.69;98669.84;2062628;28;20481;-66
2021/04/28 00:15:49;;;;;;;149.37;85.57;;;;;;;18.76;52.77;98669.84;2063531;28;20096;-67
2021/04/28 00:16:49;;;;;;;150.68;88.57;;;;;;;18.75;53.07;98674.41;2063237;28;20037;-67
2021/04/28 00:17:51;;;;;;;152.17;90.83;;;;;;;18.77;52.73;98668.81;2062643;28;20038;-67
2021/04/28 00:18:52;;;;;;;151.23;91.75;;;;;;;18.77;52.88;98666.94;2063141;28;20421;-67
2021/04/28 00:19:52;;;;;;;154.30;90.00;;;;;;;18.77;52.93;98669.66;2063037;28;20096;-66
2021/04/28 00:20:53;;;;;;;153.13;89.63;;;;;;;18.76;52.75;98673.41;2063011;28;20040;-67
2021/04/28 00:21:54;;;;;;;153.10;89.63;;;;;;;18.77;52.98;98672.41;2061171;28;20030;-67
2021/04/28 00:22:55;;;;;;;146.83;88.53;;;;;;;18.77;52.68;98671.56;2062346;28;20045;-66
2021/04/28 00:23:56;;;;;;;154.80;89.47;;;;;;;18.77;52.83;98668.81;2062614;28;20518;-66
2021/04/28 00:24:57;;;;;;;154.48;89.18;;;;;;;18.77;52.92;98666.94;2061753;28;20038;-67
2021/04/28 00:25:57;;;;;;;145.07;89.77;;;;;;;18.78;52.84;98668.63;2063341;28;20038;-67
2021/04/28 00:26:58;;;;;;;144.47;87.43;;;;;;;18.77;52.92;98668.81;2062480;28;20045;-66
2021/04/28 00:27:59;;;;;;;147.20;86.73;;;;;;;18.76;52.79;98662.50;2062047;28;20080;-66
2021/04/28 00:28:59;;;;;;;145.38;84.68;;;;;;;18.76;53.08;98662.50;2063032;28;20077;-66
2021/04/28 00:30:01;;;;;;;141.93;87.83;;;;;;;18.76;52.77;98659.75;2061821;28;20038;-66
2021/04/28 00:31:03;;;;;;;149.90;87.13;;;;;;;18.76;52.81;98665.22;2061537;28;20041;-67
2021/04/28 00:32:03;;;;;;;;;;;;;;;18.71;52.84;98664.88;2061971;28;20034;-67
2021/04/28 00:33:04;;;;;;;142.32;82.47;;;;;;;18.73;52.97;98665.56;2062686;28;19914;-67
2021/04/28 00:34:05;;;;;;;142.35;84.53;;;;;;;18.74;52.89;98667.28;2065130;28;20034;-66
2021/04/28 00:35:09;;;;;;;150.87;86.90;;;;;;;18.73;52.88;98668.28;2057180;28;20069;-67
2021/04/28 00:36:09;;;;;;;146.20;85.28;;;;;;;18.73;52.77;98665.56;2063169;28;20045;-67
2021/04/28 00:37:10;;;;;;;134.00;80.60;;;;;;;18.74;52.83;98664.53;2061187;28;20037;-66
2021/04/28 00:38:10;;;;;;;144.93;82.80;;;;;;;18.74;52.88;98664.53;2060449;28;20041;-66
2021/04/28 00:39:11;;;;;;;148.17;88.63;;;;;;;18.76;52.79;98665.22;2062892;28;20041;-66
2021/04/28 00:40:19;;;;;;;148.20;84.97;;;;;;;18.75;52.85;98663.50;2058646;28;20489;-67
2021/04/28 00:41:20;;;;;;;148.27;84.18;;;;;;;18.76;52.91;98662.50;2063507;28;20446;-67
2021/04/28 00:42:20;;;;;;;143.73;84.57;;;;;;;18.76;52.99;98656.19;2062757;28;20072;-66
2021/04/28 00:43:22;;;;;;;141.00;86.03;;;;;;;18.76;52.76;98651.56;2062946;28;20054;-67
2021/04/28 00:44:23;;;;;;;;;;;;;;;18.71;53.01;98653.13;2062648;28;20032;-66
2021/04/28 00:45:25;;;;;;;140.15;82.70;;;;;;;18.71;52.86;98659.44;2062876;28;19914;-67
2021/04/28 00:46:26;;;;;;;146.00;82.40;;;;;;;18.73;52.78;98657.38;2063291;28;20065;-66
2021/04/28 00:47:27;;;;;;;136.73;81.27;;;;;;;18.72;52.87;98658.41;2062362;28;20018;-66
2021/04/28 00:48:28;;;;;;;139.38;81.15;;;;;;;18.73;52.92;98653.78;2062717;28;20065;-66
2021/04/28 00:49:28;;;;;;;137.82;81.25;;;;;;;18.73;52.92;98654.63;2062973;28;20486;-66
2021/04/28 00:50:36;;;;;;;141.57;80.90;;;;;;;18.73;52.93;98651.91;2062930;28;20045;-66
2021/04/28 00:51:36;;;;;;;142.73;82.53;;;;;;;18.74;52.81;98650.91;2063393;28;20551;-66
2021/04/28 00:52:37;;;;;;;140.73;84.03;;;;;;;18.74;52.91;98650.91;2061398;28;20449;-66
2021/04/28 00:53:38;;;;;;;141.37;87.40;;;;;;;18.74;52.80;98648.16;2062253;28;20034;-66
2021/04/28 00:54:39;;;;;;;137.23;82.60;;;;;;;18.76;52.69;98648.00;2062980;28;20477;-66
2021/04/28 00:55:40;;;;;;;137.33;83.03;;;;;;;18.74;52.79;98648.16;2061076;28;20121;-66
2021/04/28 00:56:42;;;;;;;138.87;85.50;;;;;;;18.75;53.03;98652.59;2060480;28;20038;-66
2021/04/28 00:57:43;;;;;;;136.50;79.95;;;;;;;18.75;52.79;98652.59;2061355;28;20306;-66
2021/04/28 00:58:43;;;;;;;137.33;78.70;;;;;;;18.74;52.78;98645.44;2062127;28;20050;-66
2021/04/28 00:59:44;;;;;;;132.60;79.50;;;;;;;18.76;52.75;98642.53;2062547;28;20062;-66
2021/04/28 01:00:45;;;;;;;128.53;81.60;;;;;;;18.75;52.97;98640.81;2062822;28;20201;-66
2021/04/28 01:01:46;;;;;;;128.10;78.97;;;;;;;18.74;52.68;98642.72;2062973;28;20050;-66
2021/04/28 01:02:46;;;;;;;131.87;83.40;;;;;;;18.74;52.79;98642.72;2056687;28;20046;-66
2021/04/28 01:03:49;;;;;;;141.20;82.17;;;;;;;18.75;52.91;98644.38;2059893;28;20048;-66
2021/04/28 01:04:50;;;;;;;133.63;79.85;;;;;;;18.74;52.86;98637.25;2055754;28;20034;-66
2021/04/28 01:05:53;;;;;;;140.30;83.40;;;;;;;18.74;52.80;98639.97;2060096;28;20130;-66
2021/04/28 01:06:54;;;;;;;138.52;80.63;;;;;;;18.75;52.88;98640.81;2058550;28;20513;-66
2021/04/28 01:07:56;;;;;;;132.82;80.82;;;;;;;18.73;52.80;98638.25;2059305;28;20046;-66
2021/04/28 01:08:57;;;;;;;138.25;82.95;;;;;;;18.75;52.74;98641.66;2060999;28;20489;-66
2021/04/28 01:09:58;;;;;;;134.65;79.45;;;;;;;18.73;52.73;98640.16;2061746;28;20030;-66
2021/04/28 01:10:59;;;;;;;131.90;80.22;;;;;;;18.74;53.04;98639.97;2062782;28;20063;-66
2021/04/28 01:12:02;;;;;;;140.60;78.83;;;;;;;18.73;52.79;98632.81;2058856;28;20030;-66
2021/04/28 01:13:04;;;;;;;136.68;78.45;;;;;;;18.75;52.85;98635.34;2062362;28;20153;-66
2021/04/28 01:14:05;;;;;;;133.60;78.25;;;;;;;18.74;52.71;98629.06;2063039;28;20029;-66
2021/04/28 01:15:10;;;;;;;133.45;80.90;;;;;;;18.74;52.86;98629.06;2062632;28;20030;-66
2021/04/28 01:16:10;;;;;;;122.95;77.15;;;;;;;18.75;52.87;98629.91;2062965;28;20041;-67
2021/04/28 01:17:11;;;;;;;132.90;77.70;;;;;;;18.75;52.78;98630.75;2062411;28;20022;-66
2021/04/28 01:18:11;;;;;;;132.10;80.27;;;;;;;18.74;52.83;98629.06;2062698;28;20490;-66
2021/04/28 01:19:13;;;;;;;128.27;79.27;;;;;;;18.73;52.86;98621.03;2069196;28;20038;-66
2021/04/28 01:20:16;;;;;;;130.52;79.05;;;;;;;18.74;52.77;98626.31;2066987;28;20382;-66
2021/04/28 01:21:17;;;;;;;127.32;79.05;;;;;;;18.74;52.80;98623.59;2062283;28;20037;-66
2021/04/28 01:22:18;;;;;;;133.77;78.67;;;;;;;18.74;52.78;98625.44;2061356;28;20312;-66
2021/04/28 01:23:21;;;;;;;126.85;75.43;;;;;;;18.73;52.84;98623.78;2062559;28;20033;-66
2021/04/28 01:24:22;;;;;;;125.03;77.05;;;;;;;18.73;52.94;98621.88;2062512;28;20031;-66
2021/04/28 01:25:24;;;;;;;122.80;75.95;;;;;;;18.74;52.83;98629.06;2061939;28;20034;-66
2021/04/28 01:26:28;;;;;;;132.00;75.93;;;;;;;18.73;52.86;98624.63;2062054;28;20201;-66
2021/04/28 01:27:30;;;;;;;123.78;75.40;;;;;;;18.72;52.85;98625.66;2060779;28;20041;-66
2021/04/28 01:28:31;;;;;;;;;;;;;;;18.69;53.01;98627.88;2062346;28;20030;-66
2021/04/28 01:29:34;;;;;;;130.05;75.93;;;;;;;18.68;52.92;98621.59;2062280;28;19922;-66
2021/04/28 01:30:40;;;;;;;133.98;77.90;;;;;;;18.70;52.90;98619.53;2062487;28;20080;-66
2021/04/28 01:31:41;;;;;;;128.23;73.65;;;;;;;18.70;52.81;98616.78;2062959;28;20037;-66
2021/04/28 01:32:46;;;;;;;127.60;80.27;;;;;;;18.70;52.73;98624.16;2061778;28;20567;-66
2021/04/28 01:33:51;;;;;;;128.77;77.38;;;;;;;18.70;52.84;98622.25;2061241;28;20065;-66
2021/04/28 01:34:53;;;;;;;126.75;75.07;;;;;;;18.70;52.83;98622.25;2063218;28;20035;-66
2021/04/28 01:35:56;;;;;;;129.15;76.38;;;;;;;18.70;52.93;98616.78;2058770;28;20490;-66
2021/04/28 01:36:57;;;;;;;123.72;75.65;;;;;;;18.72;52.92;98622.94;2060731;28;20039;-66
2021/04/28 01:37:58;;;;;;;136.90;76.45;;;;;;;18.71;52.82;98621.22;2059106;28;20024;-66
2021/04/28 01:39:03;;;;;;;126.97;75.97;;;;;;;18.71;52.90;98623.94;2061783;28;20495;-66
2021/04/28 01:40:04;;;;;;;127.68;75.45;;;;;;;18.71;52.91;98623.94;2061992;28;20033;-66
2021/04/28 01:41:06;;;;;;;132.00;76.93;;;;;;;18.72;52.83;98624.81;2060365;28;20041;-66
2021/04/28 01:42:08;;;;;;;;;;;;;;;18.67;52.95;98625.38;2061133;28;20062;-66
2021/04/28 01:43:09;;;;;;;122.05;74.75;;;;;;;18.68;52.93;98618.84;2061514;28;19929;-66
2021/04/28 01:44:12;;;;;;;126.35;76.30;;;;;;;18.69;52.98;98625.16;2053895;28;20034;-66
2021/04/28 01:45:13;;;;;;;128.75;75.55;;;;;;;18.68;52.92;98616.13;2059128;28;20421;-66
2021/04/28 01:46:15;;;;;;;121.53;75.80;;;;;;;18.70;52.92;98619.53;2062893;28;20076;-66
2021/04/28 01:47:18;;;;;;;127.50;75.07;;;;;;;18.70;52.85;98616.78;2062549;28;20847;-66
2021/04/28 01:48:19;;;;;;;121.70;73.47;;;;;;;18.70;52.92;98616.78;2061949;28;20042;-66
2021/04/28 01:49:20;;;;;;;128.47;74.40;;;;;;;18.70;52.88;98619.53;2062594;28;20037;-66
2021/04/28 01:50:22;;;;;;;122.90;75.00;;;;;;;18.71;52.92;98613.03;2062602;28;20038;-66
2021/04/28 01:51:23;;;;;;;119.07;74.68;;;;;;;18.71;53.11;98607.56;2062853;28;20026;-66
2021/04/28 01:52:23;;;;;;;123.77;72.70;;;;;;;18.71;52.88;98613.03;2062127;28;20038;-66
2021/04/28 01:53:25;;;;;;;133.93;78.10;;;;;;;18.71;52.97;98612.19;2053890;28;20092;-66
2021/04/28 01:54:25;;;;;;;125.88;75.57;;;;;;;18.70;53.13;98605.03;2060245;28;20026;-66
2021/04/28 01:55:26;;;;;;;117.70;73.17;;;;;;;18.70;52.80;98611.34;2061643;28;20046;-66
2021/04/28 01:56:27;;;;;;;123.63;75.90;;;;;;;18.70;52.78;98611.34;2061255;28;20022;-66
2021/04/28 01:57:28;;;;;;;130.13;78.45;;;;;;;18.70;52.85;98608.59;2060632;28;20193;-66
2021/04/28 01:58:30;;;;;;;124.07;73.30;;;;;;;18.72;52.77;98608.44;2062655;28;20045;-66
2021/04/28 01:59:32;;;;;;;117.90;72.35;;;;;;;18.72;52.91;98608.44;2062473;28;20272;-66
2021/04/28 02:00:34;;;;;;;126.75;74.60;;;;;;;18.70;52.72;98608.59;2060843;28;20117;-66
2021/04/28 02:01:35;;;;;;;121.60;73.78;;;;;;;18.70;52.71;98605.03;2054784;28;20034;-66
2021/04/28 02:02:38;;;;;;;120.47;73.65;;;;;;;18.70;52.99;98605.88;2058519;28;20742;-66
2021/04/28 02:03:38;;;;;;;116.13;73.10;;;;;;;18.70;52.81;98605.88;2062115;28;20056;-66
2021/04/28 02:04:39;;;;;;;129.83;78.57;;;;;;;18.69;52.77;98596.00;2058328;28;20472;-66
2021/04/28 02:05:39;;;;;;;125.40;76.57;;;;;;;18.70;52.71;98596.84;2058551;28;20606;-66
2021/04/28 02:06:40;;;;;;;123.87;73.83;;;;;;;18.71;52.87;98601.25;2061271;28;20030;-66
2021/04/28 02:07:42;;;;;;;120.93;74.28;;;;;;;18.71;52.95;98596.66;2061424;28;20375;-66
2021/04/28 02:08:43;;;;;;;126.22;74.47;;;;;;;18.70;52.92;98594.13;2062764;28;20045;-66
2021/04/28 02:09:43;;;;;;;120.20;75.23;;;;;;;18.70;52.85;98599.56;2061465;28;20065;-66
2021/04/28 02:10:44;;;;;;;120.47;75.23;;;;;;;18.70;52.96;98600.41;2062531;28;20082;-66
2021/04/28 02:11:45;;;;;;;118.60;73.90;;;;;;;18.71;52.93;98595.81;2061857;28;20088;-66
2021/04/28 02:12:47;;;;;;;120.73;71.17;;;;;;;18.71;52.84;98591.19;2062635;28;20026;-66
2021/04/28 02:13:49;;;;;;;120.72;71.93;;;;;;;18.70;52.91;98594.97;2061738;28;20034;-66
2021/04/28 02:14:52;;;;;;;112.28;71.65;;;;;;;18.71;52.95;98596.66;2060532;28;20117;-66
2021/04/28 02:15:55;;;;;;;117.25;70.53;;;;;;;18.71;52.83;98599.38;2058512;28;20040;-66
2021/04/28 02:16:56;;;;;;;109.03;68.97;;;;;;;18.71;52.96;98593.91;2061931;28;20038;-66
2021/04/28 02:18:01;;;;;;;110.72;70.45;;;;;;;18.70;53.04;98592.22;2060783;28;20108;-66
2021/04/28 02:19:04;;;;;;;109.20;67.38;;;;;;;18.70;52.99;98600.41;2062577;28;20092;-66
2021/04/28 02:20:09;;;;;;;107.22;67.93;;;;;;;18.70;52.88;98597.69;2061770;28;20030;-66
2021/04/28 02:21:11;;;;;;;113.88;67.97;;;;;;;18.72;52.93;98598.38;2062488;28;20564;-65
2021/04/28 02:23:49;;;;;;;111.68;66.93;;;;;;;18.66;53.19;98590.88;2056724;28;19918;-66
2021/04/28 02:24:50;;;;;;;117.70;65.20;;;;;;;18.66;53.08;98593.63;2061448;28;20038;-66
2021/04/28 02:25:54;;;;;;;113.53;69.10;;;;;;;18.67;53.17;98591.72;2062310;28;20121;-66
2021/04/28 02:26:56;;;;;;;105.30;65.53;;;;;;;18.68;53.22;98590.72;2062259;28;20033;-66
2021/04/28 02:27:57;;;;;;;109.15;65.75;;;;;;;18.69;53.18;98595.13;2061193;28;20045;-66
2021/04/28 02:28:58;;;;;;;111.90;66.43;;;;;;;18.68;53.25;98597.03;2062473;28;20061;-67
2021/04/28 02:29:58;;;;;;;104.20;63.13;;;;;;;18.68;53.40;98591.56;2061987;28;20030;-66
2021/04/28 02:31:00;;;;;;;109.77;64.87;;;;;;;18.69;53.21;98589.66;2062286;28;20069;-66
2021/04/28 02:32:00;;;;;;;107.95;65.57;;;;;;;18.68;53.34;98588.84;2061700;28;20087;-66
2021/04/28 02:33:02;;;;;;;105.90;64.13;;;;;;;18.68;53.43;98591.56;2060067;28;20034;-66
2021/04/28 02:34:04;;;;;;;109.80;65.55;;;;;;;18.68;53.30;98594.28;2061732;28;20751;-66
2021/04/28 02:35:06;;;;;;;109.53;66.28;;;;;;;18.67;53.47;98589.88;2060767;28;20038;-66
2021/04/28 02:36:07;;;;;;;103.30;62.40;;;;;;;18.68;53.50;98591.56;2057560;28;20475;-66
2021/04/28 02:37:08;;;;;;;103.67;64.17;;;;;;;18.69;53.35;98584.22;2061806;28;20026;-66
2021/04/28 02:38:25;;;;;;;102.45;60.80;;;;;;;18.70;53.18;98588.66;2061546;28;20026;-66
2021/04/28 02:39:37;;;;;;;101.43;60.70;;;;;;;18.68;53.49;98594.28;2060989;28;20038;-66
2021/04/28 02:40:39;;;;;;;104.65;62.53;;;;;;;18.67;53.53;98589.88;2062285;28;20038;-66
2021/04/28 02:41:44;;;;;;;99.72;62.35;;;;;;;18.65;53.45;98583.75;2056603;28;20054;-66
2021/04/28 02:42:47;;;;;;;101.93;63.22;;;;;;;18.66;53.45;98587.31;2056852;28;20474;-66
2021/04/28 02:43:48;;;;;;;105.00;61.45;;;;;;;18.67;53.47;98587.16;2062511;28;20030;-66
2021/04/28 02:44:49;;;;;;;99.05;60.85;;;;;;;18.67;53.33;98589.88;2058452;28;20042;-66
2021/04/28 02:45:51;;;;;;;100.33;61.33;;;;;;;18.69;53.38;98586.94;2062030;28;20497;-66
2021/04/28 02:46:54;;;;;;;99.80;60.80;;;;;;;18.67;53.54;98584.41;2062087;28;20035;-66
2021/04/28 02:47:55;;;;;;;98.63;61.25;;;;;;;18.67;53.45;98584.41;2061572;28;20369;-66
2021/04/28 02:48:57;;;;;;;96.83;59.33;;;;;;;18.68;53.42;98586.09;2061222;28;20049;-66
2021/04/28 02:49:58;;;;;;;100.22;60.97;;;;;;;18.68;53.35;98588.84;2061645;28;20034;-66
2021/04/28 02:50:59;;;;;;;100.05;62.80;;;;;;;18.68;53.38;98583.38;2062440;28;20080;-66
2021/04/28 02:52:01;;;;;;;101.95;62.85;;;;;;;18.68;53.48;98580.66;2061730;28;20561;-66
2021/04/28 02:53:06;;;;;;;100.75;60.50;;;;;;;18.67;53.44;98584.41;2062155;28;20030;-66
2021/04/28 02:54:08;;;;;;;97.85;60.13;;;;;;;18.68;53.53;98580.66;2059481;28;20022;-66
2021/04/28 02:55:09;;;;;;;97.10;59.95;;;;;;;18.67;53.42;98578.97;2056837;28;20061;-67
2021/04/28 02:56:10;;;;;;;91.37;59.17;;;;;;;18.67;53.44;98576.22;2061522;28;20030;-66
2021/04/28 02:57:11;;;;;;;99.20;62.10;;;;;;;18.68;53.52;98580.66;2060565;28;20042;-66
2021/04/28 02:58:13;;;;;;;106.75;64.03;;;;;;;18.68;53.32;98583.38;2057136;28;20038;-66
2021/04/28 02:59:14;;;;;;;101.07;60.88;;;;;;;18.69;53.40;98587.81;2062506;28;20026;-66
2021/04/28 03:00:19;;;;;;;99.53;60.00;;;;;;;18.67;53.37;98580.81;2061326;28;20057;-66
2021/04/28 03:01:20;;;;;;;98.20;59.88;;;;;;;18.68;53.43;98582.53;2061443;28;20273;-66
2021/04/28 03:02:21;;;;;;;97.47;61.13;;;;;;;18.66;53.38;98582.69;2062519;28;20086;-66
2021/04/28 03:03:22;;;;;;;105.37;61.17;;;;;;;18.67;53.47;98584.41;2061738;28;20037;-66
2021/04/28 03:04:24;;;;;;;100.28;61.63;;;;;;;18.66;53.54;98582.69;2062338;28;20026;-66
2021/04/28 03:05:26;;;;;;;91.57;58.40;;;;;;;18.67;53.45;98578.97;2055539;28;20117;-66
2021/04/28 03:06:26;;;;;;;99.55;59.40;;;;;;;18.67;53.45;98578.97;2056081;28;20516;-67
2021/04/28 03:07:28;;;;;;;94.97;58.10;;;;;;;18.68;53.49;98580.66;2062003;28;20592;-66
2021/04/28 03:08:28;;;;;;;97.63;57.83;;;;;;;18.66;53.33;98588.16;2060759;28;20197;-66
2021/04/28 03:09:29;;;;;;;95.17;58.33;;;;;;;18.67;53.65;98584.41;2062388;28;20049;-66
2021/04/28 03:10:29;;;;;;;97.77;58.53;;;;;;;18.66;53.34;98577.25;2062118;28;20160;-66
2021/04/28 03:11:30;;;;;;;94.60;59.43;;;;;;;18.69;53.31;98586.94;2060606;28;20125;-66
2021/04/28 03:12:33;;;;;;;94.03;57.53;;;;;;;18.66;53.57;98585.44;2062158;28;20038;-66
2021/04/28 03:13:33;;;;;;;96.63;61.40;;;;;;;18.66;53.32;98569.06;2061063;28;20125;-66
2021/04/28 03:14:33;;;;;;;92.70;59.27;;;;;;;18.68;53.47;98579.81;2062149;28;20030;-66
2021/04/28 03:15:34;;;;;;;94.70;58.80;;;;;;;18.66;53.55;98577.25;2059552;28;20106;-67
2021/04/28 03:16:35;;;;;;;95.33;57.70;;;;;;;18.67;53.36;98578.09;2059946;28;20497;-66
2021/04/28 03:17:37;;;;;;;98.20;61.00;;;;;;;18.66;53.57;98568.22;2054190;28;20050;-66
2021/04/28 03:18:38;;;;;;;95.50;59.97;;;;;;;18.66;53.45;98571.78;2060187;28;20341;-66
2021/04/28 03:19:39;;;;;;;97.60;60.33;;;;;;;18.66;53.36;98570.94;2062183;28;20044;-66
2021/04/28 03:20:42;;;;;;;100.07;59.85;;;;;;;18.67;53.41;98572.63;2060896;28;20030;-66
2021/04/28 03:21:48;;;;;;;99.28;58.53;;;;;;;18.66;53.55;98570.94;2059371;28;20034;-67
2021/04/28 03:22:49;;;;;;;95.45;59.03;;;;;;;18.65;53.38;98572.84;2061247;28;20493;-66
2021/04/28 03:23:50;;;;;;;96.72;57.35;;;;;;;18.68;53.41;98579.81;2060990;28;20621;-66
2021/04/28 03:24:51;;;;;;;98.17;59.93;;;;;;;18.66;53.35;98577.25;2062133;28;20034;-66
2021/04/28 03:25:51;;;;;;;97.90;60.40;;;;;;;18.66;53.55;98574.50;2061383;28;20274;-66
2021/04/28 03:26:56;;;;;;;91.97;59.70;;;;;;;18.66;53.52;98577.25;2061103;28;20042;-66
2021/04/28 03:27:57;;;;;;;96.10;57.00;;;;;;;18.65;53.46;98575.56;2059086;28;20039;-66
2021/04/28 03:28:58;;;;;;;98.20;56.97;;;;;;;18.65;53.57;98578.28;2057970;28;20038;-66
2021/04/28 03:29:58;;;;;;;91.47;58.27;;;;;;;18.66;53.62;98577.25;2061848;28;20030;-66
2021/04/28 03:30:59;;;;;;;93.93;58.13;;;;;;;18.66;53.51;98574.50;2061160;28;20079;-66
2021/04/28 03:31:59;;;;;;;92.37;59.23;;;;;;;18.65;53.36;98575.56;2060136;28;20125;-66
2021/04/28 03:33:00;;;;;;;95.27;58.53;;;;;;;18.66;53.53;98574.50;2061168;28;20066;-66
2021/04/28 03:34:01;;;;;;;88.77;58.83;;;;;;;18.66;53.70;98577.25;2060035;28;20378;-66
2021/04/28 03:35:03;;;;;;;98.13;59.78;;;;;;;18.66;53.53;98574.50;2059949;28;20069;-66
2021/04/28 03:36:04;;;;;;;97.43;57.97;;;;;;;18.65;53.50;98581.03;2054825;28;20077;-66
2021/04/28 03:37:05;;;;;;;99.00;60.58;;;;;;;18.65;53.59;98581.03;2051963;28;20041;-66
2021/04/28 03:38:05;;;;;;;93.40;60.27;;;;;;;18.66;53.57;98581.88;2062202;28;20042;-66
2021/04/28 03:39:06;;;;;;;91.93;56.10;;;;;;;18.65;53.44;98578.28;2060349;28;20533;-66
2021/04/28 03:40:07;;;;;;;90.93;55.37;;;;;;;18.65;53.70;98581.03;2062327;28;20038;-66
2021/04/28 03:41:08;;;;;;;93.43;57.38;;;;;;;18.64;53.61;98579.31;2061199;28;20050;-66
2021/04/28 03:42:09;;;;;;;91.90;57.53;;;;;;;18.64;53.53;98587.50;2061527;28;20034;-66
2021/04/28 03:43:09;;;;;;;87.83;54.73;;;;;;;18.66;53.65;98582.69;2062297;28;20076;-66
2021/04/28 03:44:10;;;;;;;88.70;54.43;;;;;;;18.66;53.46;98585.44;2061573;28;20085;-66
2021/04/28 03:45:11;;;;;;;91.23;56.83;;;;;;;18.65;53.50;98586.47;2061892;28;20121;-66
2021/04/28 03:46:13;;;;;;;95.18;60.17;;;;;;;18.64;53.70;98582.03;2061579;28;20033;-66
2021/04/28 03:47:14;;;;;;;95.88;56.70;;;;;;;18.66;53.60;98581.88;2060135;28;20042;-67
2021/04/28 03:48:14;;;;;;;92.40;57.00;;;;;;;18.65;53.53;98581.03;2061622;28;20026;-66
2021/04/28 03:49:18;;;;;;;86.37;56.37;;;;;;;18.66;53.51;98579.13;2060058;28;20058;-66
2021/04/28 03:50:18;;;;;;;91.05;57.65;;;;;;;18.64;53.58;98577.44;2061260;28;20042;-66
2021/04/28 03:51:21;;;;;;;91.00;57.63;;;;;;;18.66;53.44;98582.69;2061214;28;20030;-66
2021/04/28 03:52:22;;;;;;;94.38;57.38;;;;;;;18.66;53.54;98592.78;2060618;28;20437;-66
2021/04/28 03:53:22;;;;;;;92.70;60.00;;;;;;;18.64;53.57;98582.03;2062379;28;20052;-66
2021/04/28 03:54:24;;;;;;;86.43;54.80;;;;;;;18.64;53.78;98585.63;2060452;28;20037;-66
2021/04/28 03:55:24;;;;;;;83.43;54.10;;;;;;;18.67;53.50;98589.00;2062192;28;20058;-66
2021/04/28 03:56:26;;;;;;;91.43;55.40;;;;;;;18.65;53.57;98589.22;2061764;28;20038;-66
2021/04/28 03:57:26;;;;;;;93.03;57.47;;;;;;;18.65;53.55;98589.22;2061209;28;20142;-66
2021/04/28 03:58:26;;;;;;;92.30;55.10;;;;;;;18.64;53.50;98584.75;2062247;28;20037;-66
2021/04/28 03:59:27;;;;;;;85.23;54.23;;;;;;;18.64;53.59;98587.50;2061284;28;20030;-66
2021/04/28 04:00:27;;;;;;;89.30;57.30;;;;;;;18.65;53.53;98591.94;2062084;28;20758;-67
2021/04/28 04:01:28;;;;;;;90.17;54.20;;;;;;;18.65;53.62;98591.94;2061923;28;20073;-66
2021/04/28 04:02:30;;;;;;;89.33;54.23;;;;;;;18.64;53.69;98599.28;2060638;28;20030;-66
2021/04/28 04:03:30;;;;;;;;;;;;;;;18.60;53.58;98594.38;2062799;28;20064;-66
2021/04/28 04:04:30;;;;;;;85.45;53.97;;;;;;;18.59;53.80;98589.94;2060635;28;19920;-66
2021/04/28 04:05:32;;;;;;;87.07;55.07;;;;;;;18.61;53.66;98588.72;2062135;28;20072;-66
2021/04/28 04:06:33;;;;;;;87.80;54.78;;;;;;;18.59;53.71;98582.63;2060330;28;20597;-66
2021/04/28 04:07:33;;;;;;;85.90;54.30;;;;;;;18.61;53.80;98582.41;2060973;28;20856;-66
2021/04/28 04:08:34;;;;;;;89.43;54.97;;;;;;;18.60;53.72;98592.47;2062012;28;20421;-66
2021/04/28 04:09:34;;;;;;;88.87;55.50;;;;;;;18.61;53.64;98590.59;2060467;28;20045;-66
2021/04/28 04:10:36;;;;;;;91.13;56.13;;;;;;;18.61;53.68;98590.59;2060966;28;20077;-66
2021/04/28 04:11:36;;;;;;;88.05;54.13;;;;;;;18.63;53.61;98594.00;2060096;28;20037;-66
2021/04/28 04:12:37;;;;;;;90.30;57.13;;;;;;;18.62;53.58;98592.31;2062031;28;20509;-66
2021/04/28 04:13:37;;;;;;;87.17;55.23;;;;;;;18.61;53.59;98588.72;2060314;28;20024;-66
2021/04/28 04:14:38;;;;;;;91.47;56.20;;;;;;;18.62;53.54;98590.44;2060473;28;22289;-66
2021/04/28 04:15:38;;;;;;;84.37;53.70;;;;;;;18.62;53.66;98592.31;2062687;28;20193;-66
2021/04/28 04:16:38;;;;;;;83.80;54.20;;;;;;;18.62;53.69;98584.13;2061618;28;20065;-66
2021/04/28 04:17:39;;;;;;;88.03;56.53;;;;;;;18.62;53.54;98587.69;2063475;28;20766;-66
2021/04/28 04:18:39;;;;;;;85.93;53.53;;;;;;;18.60;53.56;98589.75;2066054;28;20040;-65
2021/04/28 04:19:40;;;;;;;89.37;54.20;;;;;;;18.63;53.50;98583.06;2063574;28;20213;-66
2021/04/28 04:20:40;;;;;;;84.23;56.40;;;;;;;18.61;53.47;98580.53;2063305;28;20690;-66
2021/04/28 04:21:41;;;;;;;84.10;54.43;;;;;;;18.63;53.54;98583.06;2062437;28;20034;-66
2021/04/28 04:22:41;;;;;;;92.40;56.20;;;;;;;18.63;53.56;98589.38;2063523;28;20168;-66
2021/04/28 04:23:41;;;;;;;90.87;54.13;;;;;;;18.62;53.47;98586.84;2061767;28;20034;-66
2021/04/28 04:24:42;;;;;;;95.03;55.77;;;;;;;18.60;53.45;98588.91;2062988;28;20022;-66
2021/04/28 04:25:42;;;;;;;87.47;56.07;;;;;;;18.62;53.46;98587.69;2063088;28;20030;-66
2021/04/28 04:26:43;;;;;;;84.30;53.80;;;;;;;18.62;53.50;98586.84;2062583;28;20129;-66
2021/04/28 04:27:43;;;;;;;93.57;57.23;;;;;;;18.60;53.46;98584.28;2063511;28;20038;-66
2021/04/28 04:28:44;;;;;;;87.83;55.10;;;;;;;18.62;53.37;98595.03;2062995;28;20105;-66
2021/04/28 04:29:45;;;;;;;88.20;54.17;;;;;;;18.63;53.36;98588.53;2062593;28;20041;-66
2021/04/28 04:30:49;;;;;;;86.47;51.97;;;;;;;18.62;53.29;98587.69;2063178;28;20765;-67
2021/04/28 04:31:50;;;;;;;85.88;56.17;;;;;;;18.62;53.46;98589.59;2062113;28;20061;-66
2021/04/28 04:32:50;;;;;;;82.23;54.07;;;;;;;18.63;53.36;98588.53;2062547;28;20200;-66
2021/04/28 04:33:51;;;;;;;89.30;55.07;;;;;;;18.62;53.46;98586.84;2062282;28;20026;-66
2021/04/28 04:34:51;;;;;;;85.27;53.27;;;;;;;18.62;53.46;98589.59;2062815;28;20092;-66
2021/04/28 04:35:52;;;;;;;83.17;52.13;;;;;;;18.62;53.27;98593.16;2062982;28;20078;-66
2021/04/28 04:36:52;;;;;;;82.80;53.23;;;;;;;18.61;53.45;98585.97;2063558;28;20064;-66
2021/04/28 04:37:52;;;;;;;84.83;53.80;;;;;;;18.63;53.46;98591.25;2059342;28;20109;-66
2021/04/28 04:38:53;;;;;;;83.33;51.80;;;;;;;18.61;53.14;98585.13;2062927;28;20109;-66
2021/04/28 04:39:53;;;;;;;80.97;53.60;;;;;;;18.61;53.67;98596.06;2063144;28;20030;-66
2021/04/28 04:40:54;;;;;;;84.80;53.17;;;;;;;18.59;53.54;98587.19;2063000;28;20030;-66
2021/04/28 04:41:55;;;;;;;78.23;52.23;;;;;;;18.61;53.56;98591.44;2063516;28;20556;-66
2021/04/28 04:42:55;;;;;;;86.97;52.57;;;;;;;18.60;53.51;98595.22;2061242;28;20034;-66